Time;durP1;ratioP1;P1;durP2;ratioP2;P2;SDS_P1;SDS_P2;PMS_P1;PMS_P2;Temp;Humidity;BMP_temperature;BMP_pressure;BME280_temperature;BME280_humidity;BME280_pressure;Samples;Min_cycle;Max_cycle;Signal;HPM_P1;HPM_P2
2024/01/01 00:00:28;;;;;;;55.55;36.55;;;;;;;;;;4996554;28;20039;-50
2024/01/01 00:02:54;;;;;;;52.95;34.92;;;;;;;;;;4991920;28;20030;-51
2024/01/01 00:05:20;;;;;;;50.00;34.47;;;;;;;;;;4993564;28;20069;-49
2024/01/01 00:07:50;;;;;;;52.33;33.33;;;;;;;;;;4987445;28;20445;-50
2024/01/01 00:10:18;;;;;;;49.17;32.22;;;;;;;;;;4970345;28;20400;-51
2024/01/01 00:12:44;;;;;;;51.45;34.08;;;;;;;;;;4975371;28;20512;-52
2024/01/01 00:15:10;;;;;;;57.40;35.65;;;;;;;;;;4974239;28;20030;-49
2024/01/01 00:17:36;;;;;;;55.08;36.22;;;;;;;;;;4973833;28;20037;-52
2024/01/01 00:20:02;;;;;;;62.92;38.42;;;;;;;;;;4973884;28;20073;-50
2024/01/01 00:22:29;;;;;;;66.70;41.10;;;;;;;;;;4974134;28;20058;-54
2024/01/01 00:24:55;;;;;;;71.68;42.75;;;;;;;;;;4974928;28;20027;-52
2024/01/01 00:27:21;;;;;;;73.32;43.10;;;;;;;;;;4993423;28;20038;-53
2024/01/01 00:29:47;;;;;;;71.00;39.23;;;;;;;;;;4993161;28;20057;-52
2024/01/01 00:32:13;;;;;;;65.65;38.35;;;;;;;;;;4993269;28;20070;-52
2024/01/01 00:34:40;;;;;;;65.60;39.88;;;;;;;;;;4992824;28;20057;-52
2024/01/01 00:37:06;;;;;;;64.13;37.95;;;;;;;;;;4991302;28;20092;-49
2024/01/01 00:39:32;;;;;;;60.75;37.30;;;;;;;;;;4985323;28;20434;-48
2024/01/01 00:41:58;;;;;;;57.03;35.40;;;;;;;;;;4944673;28;20033;-53
2024/01/01 00:44:26;;;;;;;57.63;36.17;;;;;;;;;;4963009;28;20133;-53
2024/01/01 00:46:52;;;;;;;58.15;36.65;;;;;;;;;;4986763;28;20030;-53
2024/01/01 00:49:18;;;;;;;59.23;36.83;;;;;;;;;;4981236;28;20536;-53
2024/01/01 00:51:45;;;;;;;62.20;37.63;;;;;;;;;;4992781;28;20301;-53
2024/01/01 00:54:11;;;;;;;63.40;38.13;;;;;;;;;;4981804;28;20038;-49
2024/01/01 00:56:37;;;;;;;58.90;35.65;;;;;;;;;;4973396;28;20352;-52
2024/01/01 00:59:04;;;;;;;65.70;35.78;;;;;;;;;;4973283;28;20027;-52
2024/01/01 01:01:30;;;;;;;61.72;35.25;;;;;;;;;;4996506;28;20490;-49
2024/01/01 01:03:56;;;;;;;62.50;36.25;;;;;;;;;;4988027;28;20037;-52
2024/01/01 01:06:22;;;;;;;59.22;33.08;;;;;;;;;;4973061;28;20034;-53
2024/01/01 01:08:48;;;;;;;57.80;34.53;;;;;;;;;;4972963;28;20023;-52
2024/01/01 01:11:15;;;;;;;60.20;35.60;;;;;;;;;;4973235;28;20118;-51
2024/01/01 01:13:41;;;;;;;60.17;33.58;;;;;;;;;;4988861;28;20053;-49
2024/01/01 01:16:07;;;;;;;55.92;31.48;;;;;;;;;;4982829;28;20037;-53
2024/01/01 01:18:33;;;;;;;59.88;35.47;;;;;;;;;;5033674;23;20076;-49
2024/01/01 01:20:59;;;;;;;55.20;32.50;;;;;;;;;;5031654;28;20376;-50
2024/01/01 01:23:28;;;;;;;53.17;31.42;;;;;;;;;;5031733;28;20098;-48
2024/01/01 01:25:54;;;;;;;56.08;32.22;;;;;;;;;;5031706;28;20045;-49
2024/01/01 01:28:24;;;;;;;54.83;33.03;;;;;;;;;;5001560;28;20665;-51
2024/01/01 01:30:50;;;;;;;48.80;31.67;;;;;;;;;;4994227;28;20770;-49
2024/01/01 01:33:17;;;;;;;50.00;32.07;;;;;;;;;;4994169;28;20515;-49
2024/01/01 01:35:43;;;;;;;47.97;28.77;;;;;;;;;;5012166;28;20042;-49
2024/01/01 01:38:09;;;;;;;48.95;31.02;;;;;;;;;;5011599;28;20033;-48
2024/01/01 01:40:35;;;;;;;43.53;31.00;;;;;;;;;;5011983;28;20029;-50
2024/01/01 01:43:02;;;;;;;46.08;28.75;;;;;;;;;;4994348;28;20045;-50
2024/01/01 01:45:28;;;;;;;40.60;27.17;;;;;;;;;;4994110;28;20030;-49
2024/01/01 01:47:54;;;;;;;42.22;27.58;;;;;;;;;;5008952;28;20804;-48
2024/01/01 01:50:21;;;;;;;39.55;27.60;;;;;;;;;;5010798;28;20117;-49
2024/01/01 01:52:48;;;;;;;40.83;26.42;;;;;;;;;;4994174;28;20069;-48
2024/01/01 01:55:14;;;;;;;36.45;25.95;;;;;;;;;;4975765;28;20041;-50
2024/01/01 01:57:43;;;;;;;41.47;28.38;;;;;;;;;;4991928;28;20400;-49
2024/01/01 02:00:10;;;;;;;40.95;27.10;;;;;;;;;;4973895;28;20039;-49
2024/01/01 02:02:39;;;;;;;37.83;24.60;;;;;;;;;;5009298;28;20038;-51
2024/01/01 02:05:05;;;;;;;37.80;25.88;;;;;;;;;;5000521;28;20389;-49
2024/01/01 02:07:32;;;;;;;37.83;26.25;;;;;;;;;;4974452;28;20027;-49
2024/01/01 02:09:58;;;;;;;39.42;24.20;;;;;;;;;;4974481;28;20126;-51
2024/01/01 02:12:25;;;;;;;35.40;24.17;;;;;;;;;;4962538;28;20034;-49
2024/01/01 02:14:51;;;;;;;37.58;25.27;;;;;;;;;;4993950;28;20030;-48
2024/01/01 02:17:17;;;;;;;34.65;23.27;;;;;;;;;;4979323;28;20034;-49
2024/01/01 02:19:43;;;;;;;34.38;23.75;;;;;;;;;;4997492;28;20035;-50
2024/01/01 02:22:09;;;;;;;31.53;21.67;;;;;;;;;;5007475;28;20022;-49
2024/01/01 02:24:36;;;;;;;31.83;23.08;;;;;;;;;;4995456;28;20041;-50
2024/01/01 02:27:02;;;;;;;32.50;21.50;;;;;;;;;;5005119;28;20036;-48
2024/01/01 02:29:28;;;;;;;31.88;24.30;;;;;;;;;;5014904;28;20119;-48
2024/01/01 02:31:55;;;;;;;28.83;20.87;;;;;;;;;;5015114;28;20369;-48
2024/01/01 02:34:22;;;;;;;31.33;22.30;;;;;;;;;;5011156;28;20537;-49
2024/01/01 02:36:48;;;;;;;33.75;22.25;;;;;;;;;;5007184;28;20040;-50
2024/01/01 02:39:14;;;;;;;32.65;22.83;;;;;;;;;;5014869;28;20034;-50
2024/01/01 02:41:40;;;;;;;35.77;22.67;;;;;;;;;;5014752;28;20038;-50
2024/01/01 02:44:07;;;;;;;30.83;22.25;;;;;;;;;;4997278;28;20277;-49
2024/01/01 02:46:33;;;;;;;35.03;22.25;;;;;;;;;;4996438;28;20085;-48
2024/01/01 02:48:59;;;;;;;35.92;24.25;;;;;;;;;;4996054;28;20101;-48
2024/01/01 02:51:25;;;;;;;34.58;24.70;;;;;;;;;;4996218;28;20077;-49
2024/01/01 02:53:51;;;;;;;36.67;25.10;;;;;;;;;;4995022;28;20040;-48
2024/01/01 02:56:18;;;;;;;35.38;24.30;;;;;;;;;;5004257;28;20032;-49
2024/01/01 02:58:45;;;;;;;31.70;20.98;;;;;;;;;;5013320;28;20500;-49
2024/01/01 03:01:11;;;;;;;31.23;22.02;;;;;;;;;;4987286;28;20503;-49
2024/01/01 03:03:37;;;;;;;34.15;23.92;;;;;;;;;;5014369;28;20113;-49
2024/01/01 03:06:06;;;;;;;34.40;24.20;;;;;;;;;;4996762;28;20030;-49
2024/01/01 03:08:32;;;;;;;31.88;21.40;;;;;;;;;;4995242;28;20155;-50
2024/01/01 03:10:59;;;;;;;32.30;24.17;;;;;;;;;;5008242;28;20531;-48
2024/01/01 03:13:25;;;;;;;34.10;23.40;;;;;;;;;;5005953;28;20027;-48
2024/01/01 03:15:51;;;;;;;29.88;22.48;;;;;;;;;;5000670;28;20168;-48
2024/01/01 03:18:17;;;;;;;30.48;20.38;;;;;;;;;;5012710;28;20045;-49
2024/01/01 03:20:44;;;;;;;31.20;21.98;;;;;;;;;;4966344;28;20530;-47
2024/01/01 03:23:10;;;;;;;29.08;21.27;;;;;;;;;;4978013;28;20074;-48
2024/01/01 03:25:36;;;;;;;30.17;22.42;;;;;;;;;;4977012;28;20061;-48
2024/01/01 03:28:02;;;;;;;28.48;20.90;;;;;;;;;;4993939;28;20030;-51
2024/01/01 03:30:28;;;;;;;31.83;20.73;;;;;;;;;;4981445;28;20030;-49
2024/01/01 03:32:54;;;;;;;31.35;19.75;;;;;;;;;;4985968;28;20034;-50
2024/01/01 03:35:21;;;;;;;29.48;20.10;;;;;;;;;;4994319;28;20039;-49
2024/01/01 03:37:47;;;;;;;28.73;20.15;;;;;;;;;;5008859;28;20539;-50
2024/01/01 03:40:13;;;;;;;31.10;21.35;;;;;;;;;;4988004;28;20037;-49
2024/01/01 03:42:40;;;;;;;28.17;21.37;;;;;;;;;;4976642;28;20595;-48
2024/01/01 03:45:07;;;;;;;25.95;19.30;;;;;;;;;;4987196;28;20034;-47
2024/01/01 03:47:34;;;;;;;26.38;19.50;;;;;;;;;;4976495;28;20068;-48
2024/01/01 03:50:00;;;;;;;29.42;19.52;;;;;;;;;;4977322;28;20022;-47
2024/01/01 03:52:26;;;;;;;28.20;19.20;;;;;;;;;;4993853;28;20030;-49
2024/01/01 03:54:52;;;;;;;26.23;17.95;;;;;;;;;;4999324;28;20444;-48
2024/01/01 03:57:18;;;;;;;23.55;17.70;;;;;;;;;;4995807;28;20022;-50
2024/01/01 03:59:44;;;;;;;25.13;18.05;;;;;;;;;;4979152;28;20033;-48
2024/01/01 04:02:11;;;;;;;23.70;17.70;;;;;;;;;;4995059;28;20034;-48
2024/01/01 04:04:37;;;;;;;25.33;17.17;;;;;;;;;;4976208;28;20053;-48
2024/01/01 04:07:04;;;;;;;24.77;18.77;;;;;;;;;;4960913;28;20026;-47
2024/01/01 04:09:30;;;;;;;22.70;16.47;;;;;;;;;;4994660;28;20054;-47
2024/01/01 04:11:56;;;;;;;20.40;15.05;;;;;;;;;;5008559;28;20268;-47
2024/01/01 04:14:22;;;;;;;22.88;16.58;;;;;;;;;;4995202;28;20045;-48
2024/01/01 04:16:48;;;;;;;22.00;15.93;;;;;;;;;;4999057;28;20034;-48
2024/01/01 04:19:15;;;;;;;19.95;14.73;;;;;;;;;;4993164;28;20505;-49
2024/01/01 04:21:41;;;;;;;20.53;15.03;;;;;;;;;;5005288;28;20492;-48
2024/01/01 04:24:07;;;;;;;22.40;14.68;;;;;;;;;;5010877;28;20113;-48
2024/01/01 04:26:34;;;;;;;18.08;14.07;;;;;;;;;;5001843;28;20584;-48
2024/01/01 04:29:00;;;;;;;23.13;16.10;;;;;;;;;;5012613;28;20125;-50
2024/01/01 04:31:26;;;;;;;21.08;15.82;;;;;;;;;;4980104;28;20034;-48
2024/01/01 04:33:52;;;;;;;21.13;15.90;;;;;;;;;;4993143;28;20030;-49
2024/01/01 04:36:18;;;;;;;20.20;15.20;;;;;;;;;;4999787;28;20393;-49
2024/01/01 04:38:45;;;;;;;23.83;16.23;;;;;;;;;;5010991;28;20080;-49
2024/01/01 04:41:11;;;;;;;20.83;15.40;;;;;;;;;;4996715;28;20455;-50
2024/01/01 04:43:38;;;;;;;19.90;15.75;;;;;;;;;;4994481;28;20508;-49
2024/01/01 04:46:04;;;;;;;21.60;16.67;;;;;;;;;;5004327;28;20027;-51
2024/01/01 04:48:31;;;;;;;20.30;16.27;;;;;;;;;;4992704;28;20022;-50
2024/01/01 04:50:58;;;;;;;20.67;15.43;;;;;;;;;;5004756;28;20041;-49
2024/01/01 04:53:24;;;;;;;22.40;15.15;;;;;;;;;;4991651;28;20034;-51
2024/01/01 04:55:51;;;;;;;20.63;15.20;;;;;;;;;;4994040;28;20408;-49
2024/01/01 04:58:17;;;;;;;21.83;16.05;;;;;;;;;;4992579;28;20269;-49
2024/01/01 05:00:43;;;;;;;23.55;15.80;;;;;;;;;;4997100;28;20503;-49
2024/01/01 05:03:09;;;;;;;21.52;15.77;;;;;;;;;;4993079;28;20081;-49
2024/01/01 05:05:35;;;;;;;22.05;16.30;;;;;;;;;;4994803;28;20036;-48
2024/01/01 05:08:02;;;;;;;22.05;15.45;;;;;;;;;;5011506;28;20181;-49
2024/01/01 05:10:28;;;;;;;23.30;17.08;;;;;;;;;;5007359;28;20085;-48
2024/01/01 05:12:54;;;;;;;25.02;17.65;;;;;;;;;;4992713;28;20034;-48
2024/01/01 05:15:20;;;;;;;25.23;16.42;;;;;;;;;;4977102;28;20038;-48
2024/01/01 05:17:46;;;;;;;25.73;17.47;;;;;;;;;;5012030;28;20328;-49
2024/01/01 05:20:13;;;;;;;24.67;17.48;;;;;;;;;;5010378;28;20034;-50
2024/01/01 05:22:40;;;;;;;23.83;17.05;;;;;;;;;;5012041;28;20026;-51
2024/01/01 05:25:07;;;;;;;25.48;17.92;;;;;;;;;;4979786;28;20031;-49
2024/01/01 05:27:33;;;;;;;23.70;17.15;;;;;;;;;;4993582;28;20026;-49
2024/01/01 05:29:59;;;;;;;26.63;17.45;;;;;;;;;;4993943;28;20121;-48
2024/01/01 05:32:26;;;;;;;22.60;16.80;;;;;;;;;;4992631;28;20057;-48
2024/01/01 05:34:52;;;;;;;26.00;18.33;;;;;;;;;;4999824;28;20096;-50
2024/01/01 05:37:18;;;;;;;21.40;15.45;;;;;;;;;;5011945;28;20080;-50
2024/01/01 05:39:44;;;;;;;27.25;16.67;;;;;;;;;;5011828;28;20076;-48
2024/01/01 05:42:11;;;;;;;25.67;17.07;;;;;;;;;;5005641;28;20034;-49
2024/01/01 05:44:37;;;;;;;25.40;16.55;;;;;;;;;;4992177;28;20088;-48
2024/01/01 05:47:04;;;;;;;25.83;17.73;;;;;;;;;;4993589;28;20023;-49
2024/01/01 05:49:30;;;;;;;30.35;18.15;;;;;;;;;;5007409;28;20069;-48
2024/01/01 05:51:56;;;;;;;27.30;17.58;;;;;;;;;;4998482;28;20026;-48
2024/01/01 05:54:22;;;;;;;27.15;17.42;;;;;;;;;;4978848;28;20157;-48
2024/01/01 05:56:48;;;;;;;25.02;16.83;;;;;;;;;;4997356;28;20064;-48
2024/01/01 05:59:15;;;;;;;27.52;17.85;;;;;;;;;;4995849;28;20026;-51
2024/01/01 06:01:41;;;;;;;27.90;18.25;;;;;;;;;;5006887;28;20117;-48
2024/01/01 06:04:07;;;;;;;25.52;17.23;;;;;;;;;;4996028;28;20030;-48
2024/01/01 06:06:35;;;;;;;31.67;18.52;;;;;;;;;;5006122;28;20041;-48
2024/01/01 06:09:01;;;;;;;28.83;18.45;;;;;;;;;;5015253;28;20030;-49
2024/01/01 06:11:28;;;;;;;29.97;19.27;;;;;;;;;;5015319;28;20045;-48
2024/01/01 06:13:54;;;;;;;31.73;19.23;;;;;;;;;;4996284;28;20036;-49
2024/01/01 06:16:20;;;;;;;31.42;18.65;;;;;;;;;;5010813;28;20491;-48
2024/01/01 06:18:46;;;;;;;31.50;18.87;;;;;;;;;;4997620;28;20049;-48
2024/01/01 06:21:12;;;;;;;31.33;20.02;;;;;;;;;;5014475;28;20056;-49
2024/01/01 06:23:40;;;;;;;33.05;20.48;;;;;;;;;;4995566;28;20110;-49
2024/01/01 06:26:08;;;;;;;31.23;19.27;;;;;;;;;;4997541;28;20030;-48
2024/01/01 06:28:35;;;;;;;30.40;18.73;;;;;;;;;;5003792;28;20528;-49
2024/01/01 06:31:01;;;;;;;34.30;21.38;;;;;;;;;;5002889;28;20022;-47
2024/01/01 06:33:29;;;;;;;35.50;22.77;;;;;;;;;;5015177;28;20061;-49
2024/01/01 06:35:55;;;;;;;33.90;21.17;;;;;;;;;;5014335;28;20034;-49
2024/01/01 06:38:22;;;;;;;39.47;22.67;;;;;;;;;;5008066;28;20456;-51
2024/01/01 06:40:48;;;;;;;33.70;20.60;;;;;;;;;;4995409;28;20037;-51
2024/01/01 06:43:14;;;;;;;35.33;21.77;;;;;;;;;;4978948;28;20034;-49
2024/01/01 06:45:40;;;;;;;34.60;21.48;;;;;;;;;;5000055;28;20419;-50
2024/01/01 06:48:11;;;;;;;36.43;23.23;;;;;;;;;;4994568;28;20029;-49
2024/01/01 06:50:37;;;;;;;38.30;22.52;;;;;;;;;;5005884;28;20268;-49
2024/01/01 06:53:03;;;;;;;34.33;20.73;;;;;;;;;;5007031;28;20395;-49
2024/01/01 06:55:30;;;;;;;38.58;22.50;;;;;;;;;;4995192;28;20041;-50
2024/01/01 06:57:59;;;;;;;39.70;25.17;;;;;;;;;;4962216;28;20029;-49
2024/01/01 07:00:25;;;;;;;36.10;20.33;;;;;;;;;;4979749;28;20062;-49
2024/01/01 07:02:52;;;;;;;36.83;21.92;;;;;;;;;;4995554;28;20035;-49
2024/01/01 07:05:19;;;;;;;30.83;20.97;;;;;;;;;;5007830;28;20392;-49
2024/01/01 07:07:45;;;;;;;34.83;20.67;;;;;;;;;;4996076;28;20260;-50
2024/01/01 07:10:11;;;;;;;36.38;21.65;;;;;;;;;;4994677;28;20026;-50
2024/01/01 07:12:38;;;;;;;36.83;22.08;;;;;;;;;;4994731;28;20125;-49
2024/01/01 07:15:04;;;;;;;;;;;;;;;;;;4999564;28;20101;-48
2024/01/01 07:17:30;;;;;;;31.80;19.80;;;;;;;;;;5034820;23;20292;-49
2024/01/01 07:19:56;;;;;;;36.25;21.45;;;;;;;;;;5012823;28;20069;-48
2024/01/01 07:22:23;;;;;;;33.30;20.05;;;;;;;;;;5014171;28;20037;-50
2024/01/01 07:24:49;;;;;;;35.25;21.63;;;;;;;;;;5014047;28;20045;-52
2024/01/01 07:27:15;;;;;;;35.27;21.13;;;;;;;;;;4996505;28;20026;-49
2024/01/01 07:29:42;;;;;;;35.17;20.75;;;;;;;;;;5013916;28;20033;-49
2024/01/01 07:32:08;;;;;;;35.45;20.50;;;;;;;;;;5013841;28;20018;-50
2024/01/01 07:34:35;;;;;;;35.23;20.60;;;;;;;;;;4976027;28;20125;-49
2024/01/01 07:37:03;;;;;;;;;;;;;;;;;;5012747;28;20040;-51
2024/01/01 07:39:29;;;;;;;31.08;19.20;;;;;;;;;;5013598;28;19956;-48
2024/01/01 07:41:56;;;;;;;36.63;21.58;;;;;;;;;;5013901;28;20022;-49
2024/01/01 07:44:23;;;;;;;38.13;22.83;;;;;;;;;;4996158;28;20033;-48
2024/01/01 07:46:50;;;;;;;34.65;21.88;;;;;;;;;;5013400;28;20025;-51
2024/01/01 07:49:16;;;;;;;;;;;;;;;;;;5013803;28;20037;-48
2024/01/01 07:51:43;;;;;;;43.58;26.35;;;;;;;;;;5013717;28;20358;-48
2024/01/01 07:54:10;;;;;;;42.40;24.00;;;;;;;;;;5013508;28;20062;-48
2024/01/01 07:56:43;;;;;;;46.85;29.60;;;;;;;;;;5013354;28;20030;-49
2024/01/01 07:59:10;;;;;;;50.40;27.63;;;;;;;;;;4995826;28;20550;-51
2024/01/01 08:01:36;;;;;;;51.45;28.23;;;;;;;;;;5012998;28;20025;-48
2024/01/01 08:04:03;;;;;;;46.30;27.07;;;;;;;;;;5013388;28;20404;-49
2024/01/01 08:06:29;;;;;;;46.25;26.13;;;;;;;;;;5014727;28;20026;-48
2024/01/01 08:08:55;;;;;;;41.10;26.50;;;;;;;;;;5013387;28;20041;-55
2024/01/01 08:11:21;;;;;;;41.60;26.02;;;;;;;;;;5012839;28;20053;-48
2024/01/01 08:13:47;;;;;;;45.20;26.98;;;;;;;;;;4994222;28;20033;-48
2024/01/01 08:16:18;;;;;;;42.03;25.92;;;;;;;;;;5013347;28;20484;-48
2024/01/01 08:18:46;;;;;;;44.50;25.23;;;;;;;;;;5012265;28;20042;-48
2024/01/01 08:21:12;;;;;;;;;;;;;;;;;;5013471;28;20722;-50
2024/01/01 08:23:38;;;;;;;36.58;23.80;;;;;;;;;;5012164;28;20000;-49
2024/01/01 08:26:05;;;;;;;40.40;25.10;;;;;;;;;;5013032;28;20495;-48
2024/01/01 08:28:32;;;;;;;41.25;25.70;;;;;;;;;;5011995;28;20030;-52
2024/01/01 08:31:01;;;;;;;41.33;26.67;;;;;;;;;;5012514;28;20436;-52
2024/01/01 08:33:27;;;;;;;37.92;24.98;;;;;;;;;;5012099;28;20038;-50
2024/01/01 08:35:55;;;;;;;56.45;28.23;;;;;;;;;;5012115;28;20029;-52
2024/01/01 08:38:22;;;;;;;39.17;24.80;;;;;;;;;;5011409;28;20080;-50
2024/01/01 08:40:48;;;;;;;37.33;25.20;;;;;;;;;;5012307;28;20052;-49
2024/01/01 08:43:14;;;;;;;42.75;26.83;;;;;;;;;;5011724;28;20065;-52
2024/01/01 08:45:41;;;;;;;43.65;26.58;;;;;;;;;;5012347;28;20014;-52
2024/01/01 08:48:07;;;;;;;40.37;25.20;;;;;;;;;;5009347;28;20029;-51
2024/01/01 08:50:34;;;;;;;39.15;24.85;;;;;;;;;;5003119;28;20391;-49
2024/01/01 08:53:00;;;;;;;39.80;24.67;;;;;;;;;;5011266;28;20022;-52
2024/01/01 08:55:27;;;;;;;40.58;26.35;;;;;;;;;;5012196;28;20036;-52
2024/01/01 08:57:53;;;;;;;40.88;24.48;;;;;;;;;;5011665;28;20022;-51
2024/01/01 09:00:19;;;;;;;36.05;23.92;;;;;;;;;;5011815;28;20488;-49
2024/01/01 09:02:45;;;;;;;35.33;24.37;;;;;;;;;;5009209;28;20484;-49
2024/01/01 09:05:12;;;;;;;34.97;23.60;;;;;;;;;;5006167;28;20494;-50
2024/01/01 09:07:38;;;;;;;42.08;23.20;;;;;;;;;;4991492;28;20030;-49
2024/01/01 09:10:04;;;;;;;36.15;23.08;;;;;;;;;;5010416;28;20029;-56
2024/01/01 09:12:30;;;;;;;34.22;23.60;;;;;;;;;;5011477;28;20022;-57
2024/01/01 09:14:57;;;;;;;34.78;23.45;;;;;;;;;;5011820;28;20066;-55
2024/01/01 09:17:23;;;;;;;38.33;22.48;;;;;;;;;;5008121;28;20026;-50
2024/01/01 09:19:52;;;;;;;35.25;24.17;;;;;;;;;;4994250;28;20026;-48
2024/01/01 09:22:19;;;;;;;37.28;23.88;;;;;;;;;;5011659;28;20026;-48
2024/01/01 09:24:45;;;;;;;33.85;22.48;;;;;;;;;;5011551;28;20406;-48
2024/01/01 09:27:11;;;;;;;41.37;24.37;;;;;;;;;;5011602;28;20022;-51
2024/01/01 09:29:37;;;;;;;32.63;23.05;;;;;;;;;;4993233;28;20029;-52
2024/01/01 09:32:04;;;;;;;36.10;22.88;;;;;;;;;;5011199;28;20021;-50
2024/01/01 09:34:31;;;;;;;39.35;25.13;;;;;;;;;;4974294;28;20484;-48
2024/01/01 09:36:59;;;;;;;36.40;23.53;;;;;;;;;;4996552;28;20026;-47
2024/01/01 09:39:25;;;;;;;41.83;28.17;;;;;;;;;;4991633;28;20049;-49
2024/01/01 09:41:52;;;;;;;38.55;23.80;;;;;;;;;;5011178;28;20309;-49
2024/01/01 09:44:18;;;;;;;41.55;26.50;;;;;;;;;;5005091;28;20021;-53
2024/01/01 09:46:46;;;;;;;47.23;28.83;;;;;;;;;;5005303;28;20034;-51
2024/01/01 09:49:12;;;;;;;39.28;25.58;;;;;;;;;;5006490;28;20022;-50
2024/01/01 09:51:39;;;;;;;41.57;27.13;;;;;;;;;;5011339;28;20464;-51
2024/01/01 09:54:07;;;;;;;42.60;27.58;;;;;;;;;;5011762;28;20381;-49
2024/01/01 09:56:33;;;;;;;39.92;26.00;;;;;;;;;;5011273;28;20092;-50
2024/01/01 09:58:59;;;;;;;40.20;25.90;;;;;;;;;;4993552;28;20034;-50
2024/01/01 10:01:25;;;;;;;40.70;25.70;;;;;;;;;;5010305;28;20030;-51
2024/01/01 10:04:01;;;;;;;36.13;24.30;;;;;;;;;;5008830;28;20040;-50
2024/01/01 10:06:28;;;;;;;44.35;28.10;;;;;;;;;;4991605;28;20026;-50
2024/01/01 10:09:07;;;;;;;43.13;25.37;;;;;;;;;;5009601;28;20026;-54
2024/01/01 10:11:33;;;;;;;42.70;25.67;;;;;;;;;;5008853;28;20030;-52
2024/01/01 10:14:09;;;;;;;43.08;28.05;;;;;;;;;;5010117;28;20408;-51
2024/01/01 10:16:38;;;;;;;44.58;26.25;;;;;;;;;;5007453;28;20026;-50
2024/01/01 10:19:05;;;;;;;40.22;26.73;;;;;;;;;;5008062;28;20072;-51
2024/01/01 10:21:34;;;;;;;44.95;27.23;;;;;;;;;;5009897;28;20040;-57
2024/01/01 10:24:15;;;;;;;46.67;29.38;;;;;;;;;;5010159;28;20021;-50
2024/01/01 10:26:46;;;;;;;44.30;28.02;;;;;;;;;;5007280;28;20022;-51
2024/01/01 10:29:12;;;;;;;43.42;27.58;;;;;;;;;;4989179;28;20453;-50
2024/01/01 10:31:46;;;;;;;41.70;27.73;;;;;;;;;;5013960;28;20036;-53
2024/01/01 10:34:12;;;;;;;46.50;28.92;;;;;;;;;;4997122;28;20034;-51
2024/01/01 10:36:40;;;;;;;43.67;30.13;;;;;;;;;;5024843;28;20057;-53
2024/01/01 10:39:06;;;;;;;42.50;25.98;;;;;;;;;;5012220;28;20022;-49
2024/01/01 10:41:35;;;;;;;48.88;31.83;;;;;;;;;;5014367;28;20030;-52
2024/01/01 10:44:03;;;;;;;44.50;30.00;;;;;;;;;;5018915;28;20452;-49
2024/01/01 10:46:38;;;;;;;46.30;28.60;;;;;;;;;;5011246;28;20021;-52
2024/01/01 10:49:05;;;;;;;44.00;29.13;;;;;;;;;;5012249;28;20026;-49
2024/01/01 10:51:43;;;;;;;42.67;26.55;;;;;;;;;;5014739;28;20022;-51
2024/01/01 10:54:28;;;;;;;45.05;26.88;;;;;;;;;;5014427;28;20149;-50
2024/01/01 10:57:05;;;;;;;44.40;27.10;;;;;;;;;;5014754;28;20104;-52
2024/01/01 10:59:39;;;;;;;44.67;29.83;;;;;;;;;;5013782;28;20060;-54
2024/01/01 11:02:06;;;;;;;44.50;28.25;;;;;;;;;;5013996;28;20017;-50
2024/01/01 11:04:32;;;;;;;43.08;27.70;;;;;;;;;;5012466;28;20045;-50
2024/01/01 11:07:02;;;;;;;43.30;28.08;;;;;;;;;;5013099;28;20076;-57
2024/01/01 11:09:28;;;;;;;42.25;28.60;;;;;;;;;;5011422;28;20072;-52
2024/01/01 11:11:55;;;;;;;38.78;26.20;;;;;;;;;;5012976;28;20030;-52
2024/01/01 11:14:24;;;;;;;39.10;25.60;;;;;;;;;;5013198;28;20580;-49
2024/01/01 11:16:51;;;;;;;40.08;27.02;;;;;;;;;;5012779;28;20038;-50
2024/01/01 11:19:36;;;;;;;39.55;24.95;;;;;;;;;;5012651;28;20030;-55
2024/01/01 11:22:25;;;;;;;42.10;28.83;;;;;;;;;;4993542;28;20084;-52
2024/01/01 11:24:52;;;;;;;42.55;27.77;;;;;;;;;;5012545;28;20546;-54
2024/01/01 11:27:24;;;;;;;44.22;29.98;;;;;;;;;;5012707;28;20068;-52
2024/01/01 11:29:50;;;;;;;39.08;27.48;;;;;;;;;;5012568;28;20436;-53
2024/01/01 11:32:19;;;;;;;40.67;27.92;;;;;;;;;;5012233;28;20060;-56
2024/01/01 11:35:05;;;;;;;39.97;26.92;;;;;;;;;;5012578;28;20038;-54
2024/01/01 11:37:32;;;;;;;39.58;26.85;;;;;;;;;;4995215;28;20723;-53
2024/01/01 11:40:02;;;;;;;43.90;28.98;;;;;;;;;;5011464;28;20492;-55
2024/01/01 11:42:28;;;;;;;41.78;27.60;;;;;;;;;;5011920;28;20034;-54
2024/01/01 11:45:06;;;;;;;39.45;26.42;;;;;;;;;;5012280;28;20018;-55
2024/01/01 11:47:33;;;;;;;42.42;27.13;;;;;;;;;;4994182;28;20101;-58
2024/01/01 11:50:01;;;;;;;42.92;28.55;;;;;;;;;;4978016;28;20080;-53
2024/01/01 11:52:27;;;;;;;38.58;25.67;;;;;;;;;;4994356;28;20037;-53
2024/01/01 11:54:53;;;;;;;39.55;27.90;;;;;;;;;;5012578;28;20025;-56
2024/01/01 11:57:19;;;;;;;41.10;28.52;;;;;;;;;;4994915;28;20489;-54
2024/01/01 11:59:48;;;;;;;42.00;26.00;;;;;;;;;;4995258;28;20076;-56
2024/01/01 12:02:15;;;;;;;39.95;26.60;;;;;;;;;;5012002;28;20087;-57
2024/01/01 12:04:41;;;;;;;44.88;28.08;;;;;;;;;;5012200;28;20484;-55
2024/01/01 12:07:07;;;;;;;42.38;28.73;;;;;;;;;;5011845;28;20092;-53
2024/01/01 12:09:35;;;;;;;40.05;25.23;;;;;;;;;;4993938;28;20032;-57
2024/01/01 12:12:12;;;;;;;41.65;27.83;;;;;;;;;;4994007;28;20033;-53
2024/01/01 12:14:39;;;;;;;42.13;26.95;;;;;;;;;;4994194;28;20042;-53
2024/01/01 12:17:08;;;;;;;47.65;32.22;;;;;;;;;;5011128;28;20148;-54
2024/01/01 12:19:34;;;;;;;45.47;27.55;;;;;;;;;;4993777;28;20030;-58
2024/01/01 12:22:01;;;;;;;38.27;25.00;;;;;;;;;;5010019;28;20400;-58
2024/01/01 12:24:29;;;;;;;44.65;30.98;;;;;;;;;;4993490;28;20488;-61
2024/01/01 12:27:01;;;;;;;43.33;27.75;;;;;;;;;;5011285;28;20128;-56
2024/01/01 12:29:29;;;;;;;43.80;27.10;;;;;;;;;;5011486;28;20037;-56
2024/01/01 12:31:55;;;;;;;44.63;28.77;;;;;;;;;;5011583;28;20022;-53
2024/01/01 12:34:22;;;;;;;48.80;29.05;;;;;;;;;;5011762;28;20496;-54
2024/01/01 12:36:48;;;;;;;47.22;31.70;;;;;;;;;;5011540;28;20034;-54
2024/01/01 12:39:16;;;;;;;44.53;29.45;;;;;;;;;;4993222;28;20033;-54
2024/01/01 12:41:43;;;;;;;44.03;31.60;;;;;;;;;;5011569;28;20851;-56
2024/01/01 12:44:09;;;;;;;43.72;28.85;;;;;;;;;;5011576;28;20033;-57
2024/01/01 12:46:35;;;;;;;44.28;30.55;;;;;;;;;;5011030;28;20553;-56
2024/01/01 12:49:03;;;;;;;42.70;29.33;;;;;;;;;;4993764;28;20484;-58
2024/01/01 12:51:30;;;;;;;41.38;29.15;;;;;;;;;;5011618;28;20109;-58
2024/01/01 12:53:57;;;;;;;47.03;29.60;;;;;;;;;;5011330;28;20025;-57
2024/01/01 12:56:25;;;;;;;45.53;30.50;;;;;;;;;;5010954;28;20526;-55
2024/01/01 12:58:52;;;;;;;43.95;29.73;;;;;;;;;;5010509;28;20562;-55
2024/01/01 13:01:18;;;;;;;48.55;32.20;;;;;;;;;;4993299;28;20029;-51
2024/01/01 13:03:45;;;;;;;47.55;30.88;;;;;;;;;;5010993;28;20068;-50
2024/01/01 13:06:15;;;;;;;42.28;29.35;;;;;;;;;;5010981;28;20028;-50
2024/01/01 13:08:42;;;;;;;44.05;30.38;;;;;;;;;;5010294;28;20168;-50
2024/01/01 13:11:10;;;;;;;42.42;28.08;;;;;;;;;;5010646;28;20030;-52
2024/01/01 13:13:36;;;;;;;34.28;26.52;;;;;;;;;;4993416;28;20059;-54
2024/01/01 13:16:03;;;;;;;37.72;27.48;;;;;;;;;;4992880;28;20022;-53
2024/01/01 13:18:29;;;;;;;38.28;26.83;;;;;;;;;;5010887;28;20044;-54
2024/01/01 13:20:56;;;;;;;39.57;26.60;;;;;;;;;;4991438;28;20052;-55
2024/01/01 13:23:22;;;;;;;;;;;;;;;;;;5011111;28;20496;-53
2024/01/01 13:25:49;;;;;;;39.63;27.17;;;;;;;;;;5016392;28;20372;-51
2024/01/01 13:28:21;;;;;;;34.70;24.03;;;;;;;;;;4973709;28;20026;-54
2024/01/01 13:30:51;;;;;;;36.45;25.98;;;;;;;;;;5012078;28;20033;-53
2024/01/01 13:33:21;;;;;;;36.83;27.20;;;;;;;;;;5010805;28;20049;-54
2024/01/01 13:35:48;;;;;;;36.05;25.38;;;;;;;;;;5010694;28;20209;-51
2024/01/01 13:38:15;;;;;;;40.03;27.20;;;;;;;;;;4992406;28;20033;-51
2024/01/01 13:40:41;;;;;;;40.28;27.35;;;;;;;;;;4992790;28;20107;-53
2024/01/01 13:43:10;;;;;;;40.60;25.73;;;;;;;;;;5010624;28;20072;-50
2024/01/01 13:45:37;;;;;;;38.72;25.17;;;;;;;;;;5010374;28;20025;-55
2024/01/01 13:48:04;;;;;;;40.40;27.45;;;;;;;;;;5009976;28;20037;-50
2024/01/01 13:50:30;;;;;;;38.13;25.33;;;;;;;;;;5010445;28;20492;-53
2024/01/01 13:52:56;;;;;;;34.77;23.43;;;;;;;;;;5010418;28;20033;-54
2024/01/01 13:55:22;;;;;;;38.17;23.77;;;;;;;;;;5010536;28;20042;-53
2024/01/01 13:57:49;;;;;;;30.42;21.15;;;;;;;;;;5010232;28;20025;-55
2024/01/01 14:00:15;;;;;;;34.10;22.63;;;;;;;;;;5010336;28;20120;-50
2024/01/01 14:02:42;;;;;;;34.10;23.48;;;;;;;;;;4992949;28;20481;-51
2024/01/01 14:05:08;;;;;;;31.83;22.90;;;;;;;;;;5010433;28;20069;-49
2024/01/01 14:07:35;;;;;;;31.77;20.33;;;;;;;;;;5010138;28;20023;-55
2024/01/01 14:10:02;;;;;;;28.73;20.70;;;;;;;;;;5009918;28;20061;-54
2024/01/01 14:12:28;;;;;;;32.25;21.00;;;;;;;;;;4978527;28;20053;-52
2024/01/01 14:14:54;;;;;;;30.38;21.77;;;;;;;;;;5014102;28;20026;-50
2024/01/01 14:17:20;;;;;;;31.55;21.95;;;;;;;;;;5013644;28;20130;-54